| time (UTC) | temp C | wind direction | speed KPH | gust KPH | rain 1hr cm | rain 24hr cm | rain mn cm | humidity % | barometer mb |
| 20260507231555 | 5 | 250 | 19.3 | 25.7 | 6.15 | 23.16 | 6.73 | 61 | 953.5 |
| 20260507230515 | 5 | 244 | 20.9 | 25.7 | 5.54 | 22.58 | 6.15 | 60 | 953.6 |
| 20260507225516 | 5 | 251 | 22.5 | 29.0 | 6.15 | 22.58 | 6.15 | 61 | 953.5 |
| 20260507224515 | 5 | 244 | 20.9 | 30.6 | 6.15 | 22.58 | 6.15 | 62 | 953.5 |
| 20260507223516 | 5 | 246 | 25.7 | 29.0 | 6.15 | 22.58 | 6.15 | 62 | 953.5 |
| 20260507222515 | 5 | 254 | 25.7 | 33.8 | 0.61 | 17.04 | 0.61 | 62 | 953.5 |
| 20260507221515 | 5 | 256 | 19.3 | 40.2 | 0.61 | 17.04 | 0.61 | 62 | 953.6 |
| 20260507220535 | 5 | 269 | 14.5 | 30.6 | 0.61 | 17.04 | 0.61 | 62 | 953.5 |
| 20260507215515 | 5 | 293 | 14.5 | 25.7 | 0.00 | 16.43 | 0.00 | 62 | 953.5 |
| 20260507214515 | 5 | 292 | 11.3 | 32.2 | 0.00 | 16.43 | 0.00 | 62 | 953.5 |
| 20260507213515 | 5 | 262 | 24.1 | 46.7 | 0.00 | 16.43 | 0.00 | 63 | 953.2 |
| 20260507212515 | 5 | 253 | 22.5 | 37.0 | 0.00 | 16.43 | 0.00 | 62 | 953.1 |
| 20260507211515 | 5 | 249 | 30.6 | 45.1 | 0.00 | 16.43 | 0.00 | 62 | 953.0 |
| 20260507210516 | 4 | 250 | 27.4 | 40.2 | 0.00 | 16.43 | 0.00 | 62 | 953.0 |
| 20260507205516 | 4 | 250 | 30.6 | 45.1 | 0.00 | 16.43 | 16.43 | 63 | 953.0 |
| 20260507204515 | 4 | 245 | 33.8 | 45.1 | 0.00 | 16.43 | 16.43 | 65 | 953.0 |
| 20260507203515 | 4 | 250 | 33.8 | 41.8 | 0.00 | 16.43 | 16.43 | 66 | 953.0 |
| 20260507202515 | 4 | 250 | 33.8 | 46.7 | 0.00 | 16.43 | 16.43 | 67 | 952.9 |
| 20260507201516 | 4 | 253 | 33.8 | 48.3 | 0.00 | 16.43 | 16.43 | 67 | 953.0 |
| 20260507200515 | 4 | 252 | 37.0 | 49.9 | 0.00 | 16.43 | 16.43 | 69 | 952.9 |
| 20260507195515 | 4 | 256 | 35.4 | 46.7 | 0.00 | 16.43 | 16.43 | 68 | 952.9 |
| 20260507194514 | 4 | 257 | 33.8 | 53.1 | 0.00 | 16.43 | 16.43 | 69 | 952.7 |
| 20260507193536 | 4 | 249 | 40.2 | 53.1 | 0.00 | 16.43 | 16.43 | 71 | 952.7 |
| 20260507192515 | 4 | 247 | 40.2 | 56.3 | 0.00 | 16.43 | 16.43 | 72 | 952.6 |
| 20260507191516 | 4 | 248 | 37.0 | 53.1 | 0.00 | 16.43 | 16.43 | 72 | 952.6 |
| 20260507190535 | 4 | 251 | 38.6 | 57.9 | 0.00 | 16.43 | 16.43 | 73 | 952.6 |
| 20260507185514 | 4 | 263 | 32.2 | 54.7 | 0.00 | 16.43 | 16.43 | 73 | 952.7 |
| 20260507184515 | 3 | 263 | 24.1 | 45.1 | 0.00 | 16.43 | 16.43 | 74 | 952.8 |
| 20260507183516 | 3 | 264 | 25.7 | 49.9 | 0.00 | 16.43 | 16.43 | 74 | 952.6 |
| 20260507182515 | 4 | 264 | 30.6 | 61.2 | 0.00 | 16.43 | 16.43 | 74 | 952.5 |
| 20260507181515 | 3 | 252 | 40.2 | 69.2 | 0.00 | 16.43 | 16.43 | 75 | 952.1 |
| 20260507180514 | 4 | 254 | 40.2 | 56.3 | 0.00 | 16.43 | 16.43 | 75 | 952.1 |
| 20260507175515 | 3 | 258 | 33.8 | 70.8 | 0.00 | 16.43 | 16.43 | 76 | 952.1 |
| 20260507174515 | 4 | 247 | 45.1 | 64.4 | 0.00 | 16.43 | 16.43 | 76 | 951.8 |
| 20260507173514 | 4 | 254 | 41.8 | 64.4 | 0.00 | 16.43 | 16.43 | 77 | 952.0 |
| 20260507172515 | 4 | 258 | 33.8 | 56.3 | 0.00 | 16.43 | 16.43 | 77 | 952.3 |
| 20260507171516 | 4 | 268 | 29.0 | 48.3 | 0.00 | 16.43 | 16.43 | 75 | 952.3 |
| 20260507170515 | 4 | 266 | 30.6 | 54.7 | 0.00 | 16.43 | 16.43 | 74 | 952.2 |
| 20260507165515 | 4 | 266 | 20.9 | 56.3 | 0.00 | 16.43 | 16.43 | 76 | 952.4 |
| 20260507164516 | 4 | 258 | 25.7 | 53.1 | 0.00 | 16.43 | 16.43 | 79 | 952.5 |
| 20260507163535 | 4 | 264 | 19.3 | 51.5 | 0.00 | 16.43 | 16.43 | 79 | 952.5 |
| 20260507162515 | 4 | 257 | 11.3 | 45.1 | 0.00 | 16.43 | 16.43 | 80 | 952.7 |
| 20260507161515 | 4 | 262 | 9.7 | 29.0 | 0.00 | 16.43 | 16.43 | 81 | 952.7 |
| 20260507160515 | 4 | 286 | 16.1 | 29.0 | 0.00 | 16.43 | 16.43 | 81 | 952.6 |
| 20260507155516 | 4 | 258 | 33.8 | 46.7 | 0.00 | 16.43 | 16.43 | 79 | 952.2 |
| 20260507154515 | 5 | 251 | 32.2 | 57.9 | 0.00 | 16.43 | 16.43 | 76 | 952.3 |
| 20260507153515 | 4 | 264 | 8.0 | 20.9 | 0.00 | 16.43 | 16.43 | 79 | 952.6 |
| 20260507152516 | 4 | 219 | 14.5 | 37.0 | 0.00 | 16.43 | 16.43 | 80 | 952.5 |
| 20260507151515 | 4 | 192 | 20.9 | 38.6 | 0.00 | 16.43 | 16.43 | 84 | 952.3 |
| 20260507150515 | 4 | 198 | 20.9 | 32.2 | 0.00 | 16.43 | 16.43 | 86 | 952.6 |
| 20260507145516 | 4 | 201 | 22.5 | 35.4 | 0.00 | 16.43 | 16.43 | 84 | 952.6 |
| 20260507144515 | 4 | 194 | 20.9 | 38.6 | 0.00 | 16.43 | 16.43 | 84 | 952.5 |
| 20260507143515 | 4 | 193 | 30.6 | 45.1 | 0.00 | 16.43 | 16.43 | 83 | 952.4 |
| 20260507142514 | 4 | 192 | 27.4 | 43.5 | 0.00 | 16.43 | 16.43 | 82 | 952.4 |
| 20260507141515 | 3 | 183 | 19.3 | 33.8 | 0.00 | 16.43 | 16.43 | 89 | 952.6 |
| 20260507140515 | 3 | 153 | 14.5 | 27.4 | 0.00 | 16.43 | 16.43 | 98 | 952.8 |
| 20260507135516 | 4 | 165 | 9.7 | 20.9 | 0.00 | 16.43 | 16.43 | 87 | 952.9 |
| 20260507134536 | 4 | 225 | 9.7 | 17.7 | 0.00 | 16.43 | 16.43 | 90 | 953.2 |
| 20260507133535 | 4 | 326 | 4.8 | 6.4 | 0.00 | 22.94 | 16.43 | 98 | 953.8 |
| 20260507132515 | 5 | 255 | 4.8 | 8.0 | 0.00 | 22.94 | 16.43 | 87 | 953.5 |
| 20260507131515 | 5 | 161 | 3.2 | 9.7 | 0.00 | 22.94 | 16.43 | 83 | 953.6 |
| 20260507130535 | 5 | 15 | 4.8 | 9.7 | 0.00 | 22.94 | 16.43 | 87 | 953.7 |
| 20260507125515 | 5 | 134 | 3.2 | 9.7 | 0.00 | 22.94 | 16.43 | 84 | 953.4 |
| 20260507124516 | 5 | 214 | 9.7 | 17.7 | 0.00 | 22.94 | 16.43 | 77 | 953.4 |
| 20260507123515 | 5 | 218 | 11.3 | 20.9 | 0.00 | 22.94 | 16.43 | 73 | 953.6 |
| 20260507122515 | 5 | 238 | 4.8 | 11.3 | 0.00 | 22.94 | 16.43 | 74 | 953.6 |
| 20260507121515 | 5 | 139 | 4.8 | 8.0 | 0.00 | 22.94 | 16.43 | 78 | 953.6 |
| 20260507120515 | 5 | 188 | 6.4 | 16.1 | 0.00 | 22.94 | 16.43 | 77 | 953.6 |
| 20260507115515 | 5 | 151 | 8.0 | 25.7 | 0.00 | 22.94 | 16.43 | 79 | 953.7 |
| 20260507114516 | 5 | 171 | 17.7 | 30.6 | 0.00 | 22.94 | 16.43 | 77 | 953.6 |
| 20260507113515 | 5 | 193 | 17.7 | 32.2 | 0.00 | 22.94 | 16.43 | 74 | 953.7 |
| 20260507112515 | 6 | 158 | 11.3 | 25.7 | 0.00 | 22.94 | 16.43 | 71 | 953.7 |
| 20260507111515 | 5 | 175 | 9.7 | 24.1 | 0.00 | 22.94 | 16.43 | 73 | 953.9 |
| 20260507110515 | 5 | 224 | 12.9 | 27.4 | 0.00 | 23.55 | 16.43 | 73 | 953.9 |
| 20260507105516 | 6 | 228 | 11.3 | 27.4 | 0.00 | 23.55 | 16.43 | 75 | 954.0 |
| 20260507104516 | 6 | 224 | 9.7 | 20.9 | 0.00 | 23.55 | 16.43 | 73 | 954.0 |
| 20260507103035 | 6 | 234 | 14.5 | 27.4 | 0.00 | 23.55 | 16.43 | 71 | 954.1 |
| 20260507102015 | 5 | 220 | 4.8 | 11.3 | 0.00 | 23.55 | 16.43 | 80 | 954.1 |
| 20260507101014 | 6 | 345 | 4.8 | 8.0 | 0.00 | 23.55 | 16.43 | 79 | 954.1 |
| 20260507100015 | 6 | 265 | 9.7 | 17.7 | 6.50 | 23.55 | 16.43 | 68 | 954.1 |
| 20260507095016 | 6 | 293 | 6.4 | 11.3 | 6.50 | 23.55 | 16.43 | 65 | 954.1 |
| 20260507094015 | 6 | 256 | 4.8 | 9.7 | 7.01 | 23.55 | 16.43 | 68 | 954.6 |
| 20260507093015 | 6 | 262 | 11.3 | 17.7 | 7.01 | 23.55 | 16.43 | 69 | 954.1 |
| 20260507092015 | 6 | 296 | 4.8 | 12.9 | 7.01 | 23.55 | 16.43 | 69 | 954.1 |
| 20260507091035 | 6 | 274 | 11.3 | 20.9 | 7.01 | 23.55 | 16.43 | 69 | 954.1 |
| 20260507090014 | 6 | 290 | 8.0 | 19.3 | 0.51 | 17.04 | 9.93 | 69 | 954.1 |
| 20260507085015 | 6 | 324 | 4.8 | 14.5 | 0.51 | 17.04 | 9.93 | 68 | 953.9 |
| 20260507084015 | 6 | 265 | 6.4 | 17.7 | 0.51 | 16.54 | 9.42 | 71 | 953.9 |
| 20260507083015 | 6 | 341 | 4.8 | 9.7 | 0.51 | 16.54 | 9.42 | 71 | 953.9 |
| 20260507082015 | 6 | 262 | 6.4 | 14.5 | 0.51 | 16.54 | 9.42 | 69 | 953.9 |
| 20260507081015 | 6 | 258 | 8.0 | 16.1 | 0.51 | 16.54 | 9.42 | 68 | 953.8 |
| 20260507080035 | 6 | 271 | 12.9 | 20.9 | 0.51 | 16.54 | 9.42 | 68 | 953.7 |
| 20260507075015 | 6 | 256 | 16.1 | 25.7 | 0.51 | 16.54 | 9.42 | 67 | 953.6 |
| 20260507074015 | 6 | 268 | 14.5 | 32.2 | 0.00 | 16.03 | 8.94 | 66 | 953.5 |
| 20260507073016 | 6 | 259 | 11.3 | 19.3 | 0.00 | 16.03 | 8.94 | 65 | 953.5 |
| 20260507072015 | 6 | 244 | 8.0 | 19.3 | 0.00 | 16.03 | 8.94 | 64 | 953.4 |
| 20260507071015 | 6 | 246 | 6.4 | 14.5 | 0.00 | 16.03 | 8.94 | 65 | 953.8 |
| 20260507070015 | 6 | 235 | 12.9 | 22.5 | 0.00 | 16.03 | 8.94 | 66 | 953.5 |
| 20260507065015 | 6 | 219 | 11.3 | 25.7 | 6.50 | 16.03 | 8.94 | 66 | 953.4 |
| 20260507064016 | 6 | 241 | 16.1 | 29.0 | 6.50 | 16.03 | 8.94 | 66 | 953.4 |
| 20260507063015 | 6 | 247 | 16.1 | 22.5 | 6.50 | 16.03 | 8.94 | 65 | 953.4 |
| 20260507062015 | 6 | 232 | 12.9 | 20.9 | 6.50 | 16.03 | 8.94 | 64 | 953.4 |
| 20260507061016 | 6 | 234 | 14.5 | 24.1 | 6.50 | 16.03 | 8.94 | 63 | 953.4 |
| 20260507060015 | 5 | 228 | 16.1 | 27.4 | 6.50 | 16.03 | 8.94 | 62 | 953.2 |
| 20260507055016 | 5 | 220 | 14.5 | 25.7 | 0.00 | 9.53 | 2.44 | 62 | 953.5 |
| 20260507054015 | 5 | 236 | 16.1 | 25.7 | 0.00 | 9.53 | 2.44 | 63 | 953.3 |
| 20260507053015 | 5 | 222 | 12.9 | 19.3 | 0.00 | 9.53 | 2.44 | 63 | 953.5 |
| 20260507052014 | 5 | 218 | 12.9 | 19.3 | 0.00 | 9.53 | 2.44 | 62 | 953.1 |
| 20260507051015 | 5 | 224 | 12.9 | 22.5 | 0.00 | 9.53 | 2.44 | 62 | 953.0 |
| 20260507050016 | 5 | 224 | 12.9 | 22.5 | 0.00 | 9.53 | 2.44 | 61 | 953.0 |
| 20260507045016 | 5 | 213 | 11.3 | 17.7 | 0.00 | 9.53 | 2.44 | 58 | 952.9 |
| 20260507044015 | 6 | 217 | 12.9 | 17.7 | 0.61 | 9.53 | 2.44 | 57 | 952.8 |
| 20260507043015 | 6 | 193 | 9.7 | 12.9 | 0.61 | 9.53 | 2.44 | 56 | 952.7 |
| 20260507042015 | 5 | 169 | 8.0 | 11.3 | 1.19 | 9.53 | 2.44 | 57 | 952.7 |
| 20260507041015 | 5 | 193 | 6.4 | 9.7 | 1.19 | 9.53 | 2.44 | 57 | 952.7 |
| 20260507040016 | 5 | 198 | 8.0 | 9.7 | 1.19 | 9.53 | 2.44 | 59 | 952.7 |
| 20260507035015 | 5 | 207 | 8.0 | 9.7 | 1.19 | 9.53 | 2.44 | 60 | 952.6 |
| 20260507034015 | 5 | 228 | 9.7 | 14.5 | 0.61 | 8.94 | 1.83 | 62 | 952.6 |
| 20260507033035 | 5 | 233 | 11.3 | 16.1 | 0.61 | 8.94 | 1.83 | 62 | 952.5 |
| 20260507032015 | 5 | 205 | 9.7 | 14.5 | 0.00 | 8.33 | 1.24 | 61 | 952.4 |
| 20260507031015 | 5 | 200 | 9.7 | 14.5 | 0.00 | 8.33 | 1.24 | 63 | 952.3 |
| 20260507030015 | 5 | 210 | 9.7 | 12.9 | 0.00 | 8.33 | 1.24 | 61 | 952.4 |
| 20260507025016 | 5 | 222 | 9.7 | 14.5 | 0.00 | 8.33 | 1.24 | 63 | 952.4 |
| 20260507024015 | 5 | 235 | 9.7 | 14.5 | 0.00 | 8.33 | 1.24 | 62 | 952.3 |
| 20260507023016 | 5 | 231 | 6.4 | 12.9 | 0.00 | 8.33 | 1.24 | 62 | 952.3 |
| 20260507022015 | 5 | 240 | 8.0 | 17.7 | 0.00 | 8.33 | 1.24 | 62 | 952.3 |
| 20260507021015 | 5 | 225 | 9.7 | 12.9 | 0.61 | 8.33 | 1.24 | 62 | 952.4 |
| 20260507020015 | 5 | 224 | 11.3 | 17.7 | 0.61 | 8.33 | 1.24 | 64 | 952.3 |
| 20260507015035 | 5 | 225 | 14.5 | 20.9 | 0.61 | 8.33 | 1.24 | 63 | 952.3 |
| 20260507014016 | 5 | 228 | 12.9 | 20.9 | 0.61 | 8.33 | 1.24 | 63 | 952.3 |
| 20260507013015 | 5 | 219 | 14.5 | 19.3 | 0.61 | 8.33 | 1.24 | 62 | 952.4 |
| 20260507012016 | 5 | 221 | 12.9 | 16.1 | 0.61 | 8.33 | 1.24 | 61 | 952.4 |
| 20260507011015 | 5 | 226 | 14.5 | 20.9 | 0.00 | 7.75 | 0.64 | 61 | 952.3 |
| 20260507010036 | 5 | 230 | 12.9 | 19.3 | 0.03 | 7.75 | 0.64 | 61 | 952.2 |
| 20260507005015 | 5 | 232 | 14.5 | 20.9 | 0.03 | 7.75 | 0.64 | 61 | 952.3 |
| 20260507004035 | 5 | 219 | 14.5 | 20.9 | 0.03 | 7.75 | 0.64 | 61 | 952.2 |
| 20260507003014 | 5 | 230 | 14.5 | 20.9 | 0.64 | 7.75 | 0.64 | 62 | 952.2 |
| 20260507002035 | 5 | 230 | 16.1 | 24.1 | 0.64 | 7.75 | 0.64 | 61 | 952.2 |
| 20260507001036 | 5 | 241 | 19.3 | 30.6 | 0.64 | 7.75 | 0.64 | 62 | 952.2 |
| 20260507000015 | 5 | 244 | 20.9 | 29.0 | 0.61 | 7.70 | 0.61 | 62 | 952.1 |
| 20260506235016 | 5 | 248 | 22.5 | 29.0 | 0.61 | 7.70 | 0.61 | 60 | 952.2 |
| 20260506234015 | 5 | 247 | 24.1 | 30.6 | 0.61 | 7.70 | 0.61 | 59 | 952.2 |
| 20260506233015 | 5 | 253 | 25.7 | 30.6 | 0.00 | 7.11 | 0.00 | 57 | 952.1 |
| 20260506232015 | 5 | 257 | 20.9 | 27.4 | 0.00 | 7.11 | 0.00 | 55 | 952.2 |